sensor_id;sensor_type;location;lat;lon;timestamp;pressure;altitude;pressure_sealevel;temperature;humidity
26719;BME280;14326;50.794;6.060;2022-12-07T00:02:00;99848.47;;;4.40;100.00
26719;BME280;14326;50.794;6.060;2022-12-07T00:04:28;99845.91;;;4.43;100.00
26719;BME280;14326;50.794;6.060;2022-12-07T00:07:00;99845.09;;;4.44;100.00
26719;BME280;14326;50.794;6.060;2022-12-07T00:09:35;99846.88;;;4.45;100.00
26719;BME280;14326;50.794;6.060;2022-12-07T00:12:07;99846.94;;;4.46;100.00
26719;BME280;14326;50.794;6.060;2022-12-07T00:14:35;99838.91;;;4.43;100.00
26719;BME280;14326;50.794;6.060;2022-12-07T00:17:07;99834.63;;;4.45;100.00
26719;BME280;14326;50.794;6.060;2022-12-07T00:19:36;99835.53;;;4.46;100.00
26719;BME280;14326;50.794;6.060;2022-12-07T00:22:22;99830.31;;;4.47;100.00
26719;BME280;14326;50.794;6.060;2022-12-07T00:24:54;99833.81;;;4.48;100.00
26719;BME280;14326;50.794;6.060;2022-12-07T00:27:29;99827.69;;;4.47;100.00
26719;BME280;14326;50.794;6.060;2022-12-07T00:30:11;99824.25;;;4.50;100.00
26719;BME280;14326;50.794;6.060;2022-12-07T00:32:43;99823.41;;;4.51;100.00
26719;BME280;14326;50.794;6.060;2022-12-07T00:35:18;99822.50;;;4.50;100.00
26719;BME280;14326;50.794;6.060;2022-12-07T00:37:49;99826.03;;;4.51;100.00
26719;BME280;14326;50.794;6.060;2022-12-07T00:40:24;99820.66;;;4.48;100.00
26719;BME280;14326;50.794;6.060;2022-12-07T00:43:01;99824.19;;;4.48;100.00
26719;BME280;14326;50.794;6.060;2022-12-07T00:45:29;99808.56;;;4.53;100.00
26719;BME280;14326;50.794;6.060;2022-12-07T00:47:58;99822.56;;;4.52;100.00
26719;BME280;14326;50.794;6.060;2022-12-07T00:50:24;99821.75;;;4.53;100.00
26719;BME280;14326;50.794;6.060;2022-12-07T00:52:51;99819.78;;;4.47;100.00
26719;BME280;14326;50.794;6.060;2022-12-07T00:55:26;99812.03;;;4.52;100.00
26719;BME280;14326;50.794;6.060;2022-12-07T00:57:59;99811.19;;;4.53;100.00
26719;BME280;14326;50.794;6.060;2022-12-07T01:00:29;99810.13;;;4.48;100.00
26719;BME280;14326;50.794;6.060;2022-12-07T01:03:06;99809.19;;;4.46;100.00
26719;BME280;14326;50.794;6.060;2022-12-07T01:05:35;99815.28;;;4.45;100.00
26719;BME280;14326;50.794;6.060;2022-12-07T01:08:08;99809.88;;;4.42;100.00
26719;BME280;14326;50.794;6.060;2022-12-07T01:10:36;99807.25;;;4.42;100.00
26719;BME280;14326;50.794;6.060;2022-12-07T01:13:07;99809.88;;;4.42;100.00
26719;BME280;14326;50.794;6.060;2022-12-07T01:15:39;99815.13;;;4.40;100.00
26719;BME280;14326;50.794;6.060;2022-12-07T01:18:10;99816.94;;;4.43;100.00
26719;BME280;14326;50.794;6.060;2022-12-07T01:20:42;99811.88;;;4.47;100.00
26719;BME280;14326;50.794;6.060;2022-12-07T01:23:18;99818.88;;;4.47;100.00
26719;BME280;14326;50.794;6.060;2022-12-07T01:25:55;99823.19;;;4.45;100.00
26719;BME280;14326;50.794;6.060;2022-12-07T01:28:22;99815.28;;;4.45;100.00
26719;BME280;14326;50.794;6.060;2022-12-07T01:30:57;99818.97;;;4.50;100.00
26719;BME280;14326;50.794;6.060;2022-12-07T01:33:34;99822.28;;;4.44;100.00
26719;BME280;14326;50.794;6.060;2022-12-07T01:36:05;99816.19;;;4.45;100.00
26719;BME280;14326;50.794;6.060;2022-12-07T01:38:32;99816.13;;;4.44;100.00
26719;BME280;14326;50.794;6.060;2022-12-07T01:41:06;99827.50;;;4.43;100.00
26719;BME280;14326;50.794;6.060;2022-12-07T01:43:35;99827.50;;;4.43;100.00
26719;BME280;14326;50.794;6.060;2022-12-07T01:46:12;99832.88;;;4.46;100.00
26719;BME280;14326;50.794;6.060;2022-12-07T01:48:44;99832.88;;;4.46;100.00
26719;BME280;14326;50.794;6.060;2022-12-07T01:51:14;99826.72;;;4.45;100.00
26719;BME280;14326;50.794;6.060;2022-12-07T01:53:43;99829.28;;;4.44;100.00
26719;BME280;14326;50.794;6.060;2022-12-07T01:56:22;99828.50;;;4.46;100.00
26719;BME280;14326;50.794;6.060;2022-12-07T01:58:54;99825.81;;;4.45;100.00
26719;BME280;14326;50.794;6.060;2022-12-07T02:01:22;99831.09;;;4.45;100.00
26719;BME280;14326;50.794;6.060;2022-12-07T02:03:51;99827.69;;;4.47;100.00
26719;BME280;14326;50.794;6.060;2022-12-07T02:06:28;99823.19;;;4.45;100.00
26719;BME280;14326;50.794;6.060;2022-12-07T02:08:59;99818.88;;;4.47;100.00
26719;BME280;14326;50.794;6.060;2022-12-07T02:11:34;99815.50;;;4.51;100.00
26719;BME280;14326;50.794;6.060;2022-12-07T02:14:04;99813.72;;;4.50;100.00
26719;BME280;14326;50.794;6.060;2022-12-07T02:16:44;99813.66;;;4.48;100.00
26719;BME280;14326;50.794;6.060;2022-12-07T02:22:33;99807.38;;;4.45;100.00
26719;BME280;14326;50.794;6.060;2022-12-07T02:25:13;99802.19;;;4.46;100.00
26719;BME280;14326;50.794;6.060;2022-12-07T02:27:58;99799.81;;;4.54;100.00
26719;BME280;14326;50.794;6.060;2022-12-07T02:30:42;99797.91;;;4.50;100.00
26719;BME280;14326;50.794;6.060;2022-12-07T02:33:26;99797.06;;;4.51;100.00
26719;BME280;14326;50.794;6.060;2022-12-07T02:36:07;99799.88;;;4.56;100.00
26719;BME280;14326;50.794;6.060;2022-12-07T02:41:28;99804.13;;;4.52;100.00
26719;BME280;14326;50.794;6.060;2022-12-07T02:44:06;99803.25;;;4.51;100.00
26719;BME280;14326;50.794;6.060;2022-12-07T02:46:42;99800.59;;;4.51;100.00
26719;BME280;14326;50.794;6.060;2022-12-07T02:49:24;99790.81;;;4.47;100.00
26719;BME280;14326;50.794;6.060;2022-12-07T02:51:56;99789.03;;;4.48;100.00
26719;BME280;14326;50.794;6.060;2022-12-07T02:54:25;99801.38;;;4.49;100.00
26719;BME280;14326;50.794;6.060;2022-12-07T02:56:55;99792.53;;;4.47;100.00
26719;BME280;14326;50.794;6.060;2022-12-07T02:59:42;99792.53;;;4.47;100.00
26719;BME280;14326;50.794;6.060;2022-12-07T03:02:20;99794.31;;;4.48;100.00
26719;BME280;14326;50.794;6.060;2022-12-07T03:05:03;99797.81;;;4.47;100.00
26719;BME280;14326;50.794;6.060;2022-12-07T03:07:43;99796.94;;;4.48;100.00
26719;BME280;14326;50.794;6.060;2022-12-07T03:10:28;99806.53;;;4.46;100.00
26719;BME280;14326;50.794;6.060;2022-12-07T03:13:06;99797.81;;;4.47;100.00
26719;BME280;14326;50.794;6.060;2022-12-07T03:15:42;99800.47;;;4.48;100.00
26719;BME280;14326;50.794;6.060;2022-12-07T03:18:18;99806.53;;;4.46;100.00
26719;BME280;14326;50.794;6.060;2022-12-07T03:20:54;99802.19;;;4.46;100.00
26719;BME280;14326;50.794;6.060;2022-12-07T03:23:28;99812.75;;;4.48;100.00
26719;BME280;14326;50.794;6.060;2022-12-07T03:26:04;99804.00;;;4.49;100.00
26719;BME280;14326;50.794;6.060;2022-12-07T03:28:38;99809.25;;;4.47;100.00
26719;BME280;14326;50.794;6.060;2022-12-07T03:31:19;99797.91;;;4.50;100.00
26719;BME280;14326;50.794;6.060;2022-12-07T03:34:01;99804.97;;;4.51;100.00
26719;BME280;14326;50.794;6.060;2022-12-07T03:36:38;99803.19;;;4.50;100.00
26719;BME280;14326;50.794;6.060;2022-12-07T03:39:19;99795.34;;;4.51;100.00
26719;BME280;14326;50.794;6.060;2022-12-07T03:41:55;99791.75;;;4.49;100.00
26719;BME280;14326;50.794;6.060;2022-12-07T03:44:26;99798.66;;;4.46;100.00
26719;BME280;14326;50.794;6.060;2022-12-07T03:47:01;99800.38;;;4.45;100.00
26719;BME280;14326;50.794;6.060;2022-12-07T03:49:34;99798.66;;;4.46;100.00
26719;BME280;14326;50.794;6.060;2022-12-07T03:52:11;99793.38;;;4.46;100.00
26719;BME280;14326;50.794;6.060;2022-12-07T03:54:47;99796.22;;;4.52;100.00
26719;BME280;14326;50.794;6.060;2022-12-07T03:57:17;99796.09;;;4.49;100.00
26719;BME280;14326;50.794;6.060;2022-12-07T03:59:47;99803.19;;;4.50;100.00
26719;BME280;14326;50.794;6.060;2022-12-07T04:02:19;99800.53;;;4.50;100.00
26719;BME280;14326;50.794;6.060;2022-12-07T04:04:47;99798.75;;;4.49;100.00
26719;BME280;14326;50.794;6.060;2022-12-07T04:07:18;99790.00;;;4.50;100.00
26719;BME280;14326;50.794;6.060;2022-12-07T04:09:49;99789.03;;;4.48;100.00
26719;BME280;14326;50.794;6.060;2022-12-07T04:12:16;99786.38;;;4.46;100.00
26719;BME280;14326;50.794;6.060;2022-12-07T04:14:42;99785.47;;;4.46;100.00
26719;BME280;14326;50.794;6.060;2022-12-07T04:17:16;99788.06;;;4.44;100.00
26719;BME280;14326;50.794;6.060;2022-12-07T04:19:48;99788.88;;;4.43;100.00
26719;BME280;14326;50.794;6.060;2022-12-07T04:22:18;99802.94;;;4.44;100.00
26719;BME280;14326;50.794;6.060;2022-12-07T04:24:44;99794.22;;;4.45;100.00
26719;BME280;14326;50.794;6.060;2022-12-07T04:27:15;99799.34;;;4.42;100.00
26719;BME280;14326;50.794;6.060;2022-12-07T04:29:52;99799.34;;;4.42;100.00
26719;BME280;14326;50.794;6.060;2022-12-07T04:32:22;99793.31;;;4.44;100.00
26719;BME280;14326;50.794;6.060;2022-12-07T04:35:05;99787.16;;;4.44;100.00
26719;BME280;14326;50.794;6.060;2022-12-07T04:37:49;99788.13;;;4.46;100.00
26719;BME280;14326;50.794;6.060;2022-12-07T04:40:19;99787.22;;;4.45;100.00
26719;BME280;14326;50.794;6.060;2022-12-07T04:42:53;99779.31;;;4.45;100.00
26719;BME280;14326;50.794;6.060;2022-12-07T04:45:23;99788.94;;;4.45;100.00
26719;BME280;14326;50.794;6.060;2022-12-07T04:47:52;99791.66;;;4.46;100.00
26719;BME280;14326;50.794;6.060;2022-12-07T04:50:23;99785.34;;;4.43;100.00
26719;BME280;14326;50.794;6.060;2022-12-07T04:52:57;99786.19;;;4.42;100.00
26719;BME280;14326;50.794;6.060;2022-12-07T04:55:24;99787.06;;;4.41;100.00
26719;BME280;14326;50.794;6.060;2022-12-07T04:57:50;99786.19;;;4.42;100.00
26719;BME280;14326;50.794;6.060;2022-12-07T05:00:17;99782.63;;;4.40;100.00
26719;BME280;14326;50.794;6.060;2022-12-07T05:02:46;99780.09;;;4.43;100.00
26719;BME280;14326;50.794;6.060;2022-12-07T05:05:21;99783.63;;;4.43;100.00
26719;BME280;14326;50.794;6.060;2022-12-07T05:07:52;99782.78;;;4.44;100.00
26719;BME280;14326;50.794;6.060;2022-12-07T05:10:30;99778.28;;;4.42;100.00
26719;BME280;14326;50.794;6.060;2022-12-07T05:12:59;99778.19;;;4.39;100.00
26719;BME280;14326;50.794;6.060;2022-12-07T05:15:28;99782.56;;;4.38;100.00
26719;BME280;14326;50.794;6.060;2022-12-07T05:18:01;99774.59;;;4.37;100.00
26719;BME280;14326;50.794;6.060;2022-12-07T05:20:30;99778.09;;;4.36;100.00
26719;BME280;14326;50.794;6.060;2022-12-07T05:23:00;99780.59;;;4.33;100.00
26719;BME280;14326;50.794;6.060;2022-12-07T05:25:36;99786.72;;;4.32;100.00
26719;BME280;14326;50.794;6.060;2022-12-07T05:28:06;99784.88;;;4.29;100.00
26719;BME280;14326;50.794;6.060;2022-12-07T05:30:43;99784.00;;;4.30;100.00
26719;BME280;14326;50.794;6.060;2022-12-07T05:33:09;99789.13;;;4.26;100.00
26719;BME280;14326;50.794;6.060;2022-12-07T05:35:36;99785.66;;;4.27;100.00
26719;BME280;14326;50.794;6.060;2022-12-07T05:38:09;99782.19;;;4.28;100.00
26719;BME280;14326;50.794;6.060;2022-12-07T05:40:45;99788.06;;;4.21;100.00
26719;BME280;14326;50.794;6.060;2022-12-07T05:43:15;99782.78;;;4.21;100.00
26719;BME280;14326;50.794;6.060;2022-12-07T05:45:50;99788.06;;;4.21;100.00
26719;BME280;14326;50.794;6.060;2022-12-07T05:48:16;99780.09;;;4.19;100.00
26719;BME280;14326;50.794;6.060;2022-12-07T05:50:48;99778.31;;;4.18;100.00
26719;BME280;14326;50.794;6.060;2022-12-07T05:53:29;99771.28;;;4.19;100.00
26719;BME280;14326;50.794;6.060;2022-12-07T05:55:56;99771.19;;;4.16;100.00
26719;BME280;14326;50.794;6.060;2022-12-07T05:58:24;99771.97;;;4.13;100.00
26719;BME280;14326;50.794;6.060;2022-12-07T06:01:13;99769.34;;;4.13;100.00
26719;BME280;14326;50.794;6.060;2022-12-07T06:03:42;99767.56;;;4.12;100.00
26719;BME280;14326;50.794;6.060;2022-12-07T06:06:11;99770.97;;;4.09;100.00
26719;BME280;14326;50.794;6.060;2022-12-07T06:08:41;99776.25;;;4.09;100.00
26719;BME280;14326;50.794;6.060;2022-12-07T06:11:13;99777.13;;;4.10;100.00
26719;BME280;14326;50.794;6.060;2022-12-07T06:16:43;99781.56;;;4.11;100.00
26719;BME280;14326;50.794;6.060;2022-12-07T06:19:11;99782.50;;;4.13;100.00
26719;BME280;14326;50.794;6.060;2022-12-07T06:21:40;99788.66;;;4.13;100.00
26719;BME280;14326;50.794;6.060;2022-12-07T06:24:12;99789.63;;;4.16;100.00
26719;BME280;14326;50.794;6.060;2022-12-07T06:26:40;99789.63;;;4.16;100.00
26719;BME280;14326;50.794;6.060;2022-12-07T06:29:21;99785.31;;;4.18;100.00
26719;BME280;14326;50.794;6.060;2022-12-07T06:31:53;99787.97;;;4.18;100.00
26719;BME280;14326;50.794;6.060;2022-12-07T06:34:26;99785.31;;;4.18;100.00
26719;BME280;14326;50.794;6.060;2022-12-07T06:37:00;99786.22;;;4.18;100.00
26719;BME280;14326;50.794;6.060;2022-12-07T06:39:33;99787.97;;;4.18;100.00
26719;BME280;14326;50.794;6.060;2022-12-07T06:42:01;99795.88;;;4.19;100.00
26719;BME280;14326;50.794;6.060;2022-12-07T06:44:27;99788.94;;;4.21;100.00
26719;BME280;14326;50.794;6.060;2022-12-07T06:47:06;99790.00;;;4.26;100.00
26719;BME280;14326;50.794;6.060;2022-12-07T06:49:44;99798.66;;;4.22;100.00
26719;BME280;14326;50.794;6.060;2022-12-07T06:52:13;99796.09;;;4.24;100.00
26719;BME280;14326;50.794;6.060;2022-12-07T06:54:48;99792.59;;;4.25;100.00
26719;BME280;14326;50.794;6.060;2022-12-07T06:57:18;99788.22;;;4.25;100.00
26719;BME280;14326;50.794;6.060;2022-12-07T06:59:48;99791.75;;;4.26;100.00
26719;BME280;14326;50.794;6.060;2022-12-07T07:02:20;99791.66;;;4.23;100.00
26719;BME280;14326;50.794;6.060;2022-12-07T07:04:49;99788.19;;;4.24;100.00
26719;BME280;14326;50.794;6.060;2022-12-07T07:07:22;99790.69;;;4.21;100.00
26719;BME280;14326;50.794;6.060;2022-12-07T07:09:52;99798.59;;;4.21;100.00
26719;BME280;14326;50.794;6.060;2022-12-07T07:12:26;99796.78;;;4.20;100.00
26719;BME280;14326;50.794;6.060;2022-12-07T07:15:02;99789.78;;;4.20;100.00
26719;BME280;14326;50.794;6.060;2022-12-07T07:17:35;99798.59;;;4.21;100.00
26719;BME280;14326;50.794;6.060;2022-12-07T07:20:05;99801.22;;;4.21;100.00
26719;BME280;14326;50.794;6.060;2022-12-07T07:22:35;99805.50;;;4.19;100.00
26719;BME280;14326;50.794;6.060;2022-12-07T07:25:03;99801.16;;;4.19;100.00
26719;BME280;14326;50.794;6.060;2022-12-07T07:27:31;99799.56;;;4.23;100.00
26719;BME280;14326;50.794;6.060;2022-12-07T07:29:57;99807.47;;;4.24;100.00
26719;BME280;14326;50.794;6.060;2022-12-07T07:32:24;99802.34;;;4.27;100.00
26719;BME280;14326;50.794;6.060;2022-12-07T07:34:50;99800.53;;;4.26;100.00
26719;BME280;14326;50.794;6.060;2022-12-07T07:37:18;99795.22;;;4.25;100.00
26719;BME280;14326;50.794;6.060;2022-12-07T07:39:44;99796.03;;;4.22;100.00
26719;BME280;14326;50.794;6.060;2022-12-07T07:42:12;99794.31;;;4.24;100.00
26719;BME280;14326;50.794;6.060;2022-12-07T07:44:39;99796.13;;;4.25;100.00
26719;BME280;14326;50.794;6.060;2022-12-07T07:47:05;99804.91;;;4.26;100.00
26719;BME280;14326;50.794;6.060;2022-12-07T07:49:32;99810.13;;;4.24;100.00
26719;BME280;14326;50.794;6.060;2022-12-07T07:51:59;99803.00;;;4.22;100.00
26719;BME280;14326;50.794;6.060;2022-12-07T07:54:25;99798.59;;;4.21;100.00
26719;BME280;14326;50.794;6.060;2022-12-07T07:56:52;99810.78;;;4.19;100.00
26719;BME280;14326;50.794;6.060;2022-12-07T07:59:20;99800.16;;;4.16;100.00
26719;BME280;14326;50.794;6.060;2022-12-07T08:01:47;99804.53;;;4.15;100.00
26719;BME280;14326;50.794;6.060;2022-12-07T08:04:13;99808.81;;;4.13;100.00
26719;BME280;14326;50.794;6.060;2022-12-07T08:06:40;99812.41;;;4.15;100.00
26719;BME280;14326;50.794;6.060;2022-12-07T08:09:08;99808.00;;;4.14;100.00
26719;BME280;14326;50.794;6.060;2022-12-07T08:11:34;99809.78;;;4.15;100.00
26719;BME280;14326;50.794;6.060;2022-12-07T08:14:01;99808.78;;;4.11;100.00
26719;BME280;14326;50.794;6.060;2022-12-07T08:16:29;99814.06;;;4.11;100.00
26719;BME280;14326;50.794;6.060;2022-12-07T08:18:56;99810.69;;;4.16;100.00
26719;BME280;14326;50.794;6.060;2022-12-07T08:21:22;99802.88;;;4.19;100.00
26719;BME280;14326;50.794;6.060;2022-12-07T08:23:49;99802.94;;;4.20;100.00
26719;BME280;14326;50.794;6.060;2022-12-07T08:26:16;99809.13;;;4.21;100.00
26719;BME280;14326;50.794;6.060;2022-12-07T08:28:43;99803.00;;;4.22;100.00
26719;BME280;14326;50.794;6.060;2022-12-07T08:31:12;99803.09;;;4.23;100.00
26719;BME280;14326;50.794;6.060;2022-12-07T08:33:41;99803.19;;;4.26;100.00
26719;BME280;14326;50.794;6.060;2022-12-07T08:36:09;99808.66;;;4.32;100.00
26719;BME280;14326;50.794;6.060;2022-12-07T08:38:37;99806.94;;;4.33;100.00
26719;BME280;14326;50.794;6.060;2022-12-07T08:41:05;99806.94;;;4.33;100.00
26719;BME280;14326;50.794;6.060;2022-12-07T08:43:32;99804.22;;;4.30;100.00
26719;BME280;14326;50.794;6.060;2022-12-07T08:46:06;99810.41;;;4.32;100.00
26719;BME280;14326;50.794;6.060;2022-12-07T08:48:34;99808.50;;;4.28;100.00
26719;BME280;14326;50.794;6.060;2022-12-07T08:51:03;99806.63;;;4.24;100.00
26719;BME280;14326;50.794;6.060;2022-12-07T08:53:30;99814.38;;;4.21;100.00
26719;BME280;14326;50.794;6.060;2022-12-07T08:55:57;99814.50;;;4.24;100.00
26719;BME280;14326;50.794;6.060;2022-12-07T08:58:24;99818.06;;;4.26;100.00
26719;BME280;14326;50.794;6.060;2022-12-07T09:01:00;99825.13;;;4.27;100.00
26719;BME280;14326;50.794;6.060;2022-12-07T09:03:27;99813.88;;;4.31;100.00
26719;BME280;14326;50.794;6.060;2022-12-07T09:05:54;99821.75;;;4.29;100.00
26719;BME280;14326;50.794;6.060;2022-12-07T09:08:26;99818.22;;;4.30;100.00
26719;BME280;14326;50.794;6.060;2022-12-07T09:10:53;99825.91;;;4.24;100.00
26719;BME280;14326;50.794;6.060;2022-12-07T09:13:20;99826.47;;;4.16;100.00
26719;BME280;14326;50.794;6.060;2022-12-07T09:15:51;99830.06;;;4.18;100.00
26719;BME280;14326;50.794;6.060;2022-12-07T09:18:29;99827.31;;;4.15;100.00
26719;BME280;14326;50.794;6.060;2022-12-07T09:20:59;99826.34;;;4.12;100.00
26719;BME280;14326;50.794;6.060;2022-12-07T09:23:31;99828.28;;;4.17;100.00
26719;BME280;14326;50.794;6.060;2022-12-07T09:26:23;99826.72;;;4.22;100.00
26719;BME280;14326;50.794;6.060;2022-12-07T09:28:56;99830.69;;;4.34;100.00
26719;BME280;14326;50.794;6.060;2022-12-07T09:31:24;99832.06;;;4.48;100.00
26719;BME280;14326;50.794;6.060;2022-12-07T09:33:59;99824.69;;;4.62;100.00
26719;BME280;14326;50.794;6.060;2022-12-07T09:36:27;99831.97;;;4.69;100.00
26719;BME280;14326;50.794;6.060;2022-12-07T09:38:56;99833.78;;;4.70;100.00
26719;BME280;14326;50.794;6.060;2022-12-07T09:41:24;99829.34;;;4.69;100.00
26719;BME280;14326;50.794;6.060;2022-12-07T09:43:52;99822.28;;;4.68;100.00
26719;BME280;14326;50.794;6.060;2022-12-07T09:46:19;99831.00;;;4.67;100.00
26719;BME280;14326;50.794;6.060;2022-12-07T09:48:49;99820.38;;;4.64;100.00
26719;BME280;14326;50.794;6.060;2022-12-07T09:51:19;99819.53;;;4.65;100.00
26719;BME280;14326;50.794;6.060;2022-12-07T09:53:47;99815.22;;;4.67;100.00
26719;BME280;14326;50.794;6.060;2022-12-07T09:56:17;99815.34;;;4.70;100.00
26719;BME280;14326;50.794;6.060;2022-12-07T09:58:45;99819.84;;;4.74;100.00
26719;BME280;14326;50.794;6.060;2022-12-07T10:01:14;99819.94;;;4.77;100.00
26719;BME280;14326;50.794;6.060;2022-12-07T10:03:48;99811.94;;;4.74;100.00
26719;BME280;14326;50.794;6.060;2022-12-07T10:06:16;99816.25;;;4.72;100.00
26719;BME280;14326;50.794;6.060;2022-12-07T10:08:43;99811.19;;;4.77;100.00
26719;BME280;14326;50.794;6.060;2022-12-07T10:11:10;99804.78;;;4.70;100.00
26719;BME280;14326;50.794;6.060;2022-12-07T10:13:40;99790.94;;;4.76;100.00
26719;BME280;14326;50.794;6.060;2022-12-07T10:16:09;99802.47;;;4.79;100.00
26719;BME280;14326;50.794;6.060;2022-12-07T10:18:54;99794.84;;;4.87;100.00
26719;BME280;14326;50.794;6.060;2022-12-07T10:21:22;99791.56;;;4.94;100.00
26719;BME280;14326;50.794;6.060;2022-12-07T10:24:01;99802.00;;;4.91;100.00
26719;BME280;14326;50.794;6.060;2022-12-07T10:26:31;99786.53;;;5.02;100.00
26719;BME280;14326;50.794;6.060;2022-12-07T10:29:02;99789.34;;;5.06;100.00
26719;BME280;14326;50.794;6.060;2022-12-07T10:31:29;99794.84;;;5.14;100.00
26719;BME280;14326;50.794;6.060;2022-12-07T10:33:57;99795.25;;;5.26;100.00
26719;BME280;14326;50.794;6.060;2022-12-07T10:36:26;99798.16;;;5.33;100.00
26719;BME280;14326;50.794;6.060;2022-12-07T10:38:59;99798.94;;;5.31;100.00
26719;BME280;14326;50.794;6.060;2022-12-07T10:41:26;99788.09;;;5.22;100.00
26719;BME280;14326;50.794;6.060;2022-12-07T10:43:55;99784.44;;;5.17;100.00
26719;BME280;14326;50.794;6.060;2022-12-07T10:52:32;99768.91;;;4.99;100.00
26719;BME280;14326;50.794;6.060;2022-12-07T10:55:11;99766.13;;;4.96;100.00
26719;BME280;14326;50.794;6.060;2022-12-07T10:57:50;99769.47;;;4.90;100.00
26719;BME280;14326;50.794;6.060;2022-12-07T11:00:21;99762.53;;;4.92;100.00
26719;BME280;14326;50.794;6.060;2022-12-07T11:05:57;99759.19;;;4.98;100.00
26719;BME280;14326;50.794;6.060;2022-12-07T11:08:44;99752.25;;;5.00;100.00
26719;BME280;14326;50.794;6.060;2022-12-07T11:11:24;99750.66;;;5.05;100.00
26719;BME280;14326;50.794;6.060;2022-12-07T11:13:58;99739.97;;;5.01;100.00
26719;BME280;14326;50.794;6.060;2022-12-07T11:16:37;99738.38;;;5.07;100.00
26719;BME280;14326;50.794;6.060;2022-12-07T11:19:19;99744.75;;;5.14;100.00
26719;BME280;14326;50.794;6.060;2022-12-07T11:21:55;99739.56;;;5.15;100.00
26719;BME280;14326;50.794;6.060;2022-12-07T11:24:27;99733.28;;;5.12;100.00
26719;BME280;14326;50.794;6.060;2022-12-07T11:27:09;99722.78;;;5.13;100.00
26719;BME280;14326;50.794;6.060;2022-12-07T11:29:49;99726.22;;;5.11;100.00
26719;BME280;14326;50.794;6.060;2022-12-07T11:32:22;99715.69;;;5.11;100.00
26719;BME280;14326;50.794;6.060;2022-12-07T11:35:05;99720.13;;;5.13;100.00
26719;BME280;14326;50.794;6.060;2022-12-07T11:37:44;99716.66;;;5.14;100.00
26719;BME280;14326;50.794;6.060;2022-12-07T11:40:17;99719.34;;;5.16;100.00
26719;BME280;14326;50.794;6.060;2022-12-07T11:42:50;99714.88;;;5.13;100.00
26719;BME280;14326;50.794;6.060;2022-12-07T11:45:23;99710.56;;;5.15;100.00
26719;BME280;14326;50.794;6.060;2022-12-07T11:47:54;99708.63;;;5.10;100.00
26719;BME280;14326;50.794;6.060;2022-12-07T11:50:27;99713.97;;;5.13;100.00
26719;BME280;14326;50.794;6.060;2022-12-07T11:53:02;99709.59;;;5.13;100.00
26719;BME280;14326;50.794;6.060;2022-12-07T11:55:41;99706.25;;;5.19;100.00
26719;BME280;14326;50.794;6.060;2022-12-07T11:58:19;99705.34;;;5.17;100.00
26719;BME280;14326;50.794;6.060;2022-12-07T12:00:48;99709.84;;;5.21;100.00
26719;BME280;14326;50.794;6.060;2022-12-07T12:03:20;99710.69;;;5.20;100.00
26719;BME280;14326;50.794;6.060;2022-12-07T12:05:50;99708.06;;;5.20;100.00
26719;BME280;14326;50.794;6.060;2022-12-07T12:08:22;99705.59;;;5.26;100.00
26719;BME280;14326;50.794;6.060;2022-12-07T12:10:56;99705.03;;;5.36;100.00
26719;BME280;14326;50.794;6.060;2022-12-07T12:13:56;99689.31;;;5.39;100.00
26719;BME280;14326;50.794;6.060;2022-12-07T12:16:49;99692.03;;;5.42;100.00
26719;BME280;14326;50.794;6.060;2022-12-07T12:19:27;99692.81;;;5.38;100.00
26719;BME280;14326;50.794;6.060;2022-12-07T12:22:05;99693.56;;;5.34;100.00
26719;BME280;14326;50.794;6.060;2022-12-07T12:24:34;99686.44;;;5.31;100.00
26719;BME280;14326;50.794;6.060;2022-12-07T12:27:03;99680.97;;;5.25;100.00
26719;BME280;14326;50.794;6.060;2022-12-07T12:29:34;99673.03;;;5.24;100.00
26719;BME280;14326;50.794;6.060;2022-12-07T12:32:07;99674.69;;;5.20;100.00
26719;BME280;14326;50.794;6.060;2022-12-07T12:34:39;99679.06;;;5.20;100.00
26719;BME280;14326;50.794;6.060;2022-12-07T12:37:44;99676.47;;;5.21;100.00
26719;BME280;14326;50.794;6.060;2022-12-07T12:40:44;99673.97;;;5.26;100.00
26719;BME280;14326;50.794;6.060;2022-12-07T12:43:46;99672.34;;;5.31;100.00
26719;BME280;14326;50.794;6.060;2022-12-07T12:46:51;99659.38;;;5.37;100.00
26719;BME280;14326;50.794;6.060;2022-12-07T12:49:42;99660.63;;;5.50;100.00
26719;BME280;14326;50.794;6.060;2022-12-07T12:52:47;99660.03;;;5.58;100.00
26719;BME280;14326;50.794;6.060;2022-12-07T12:55:19;99656.72;;;5.65;100.00
26719;BME280;14326;50.794;6.060;2022-12-07T13:04:37;99650.75;;;5.72;100.00
26719;BME280;14326;50.794;6.060;2022-12-07T13:07:11;99647.19;;;5.70;100.00
26719;BME280;14326;50.794;6.060;2022-12-07T13:09:42;99652.47;;;5.70;100.00
26719;BME280;14326;50.794;6.060;2022-12-07T13:12:13;99648.88;;;5.68;100.00
26719;BME280;14326;50.794;6.060;2022-12-07T13:14:57;99644.31;;;5.63;100.00
26719;BME280;14326;50.794;6.060;2022-12-07T13:17:58;99644.53;;;5.70;100.00
26719;BME280;14326;50.794;6.060;2022-12-07T13:20:47;99638.25;;;5.65;100.00
26719;BME280;14326;50.794;6.060;2022-12-07T13:23:18;99637.34;;;5.65;100.00
26719;BME280;14326;50.794;6.060;2022-12-07T13:25:51;99636.53;;;5.67;100.00
26719;BME280;14326;50.794;6.060;2022-12-07T13:28:22;99638.25;;;5.65;100.00
26719;BME280;14326;50.794;6.060;2022-12-07T13:31:04;99631.25;;;5.67;100.00
26719;BME280;14326;50.794;6.060;2022-12-07T13:33:36;99627.69;;;5.65;100.00
26719;BME280;14326;50.794;6.060;2022-12-07T13:36:03;99618.91;;;5.66;100.00
26719;BME280;14326;50.794;6.060;2022-12-07T13:38:33;99624.28;;;5.69;100.00
26719;BME280;14326;50.794;6.060;2022-12-07T13:41:11;99616.31;;;5.68;100.00
26719;BME280;14326;50.794;6.060;2022-12-07T13:43:46;99622.53;;;5.70;100.00
26719;BME280;14326;50.794;6.060;2022-12-07T13:46:17;99611.94;;;5.68;100.00
26719;BME280;14326;50.794;6.060;2022-12-07T13:48:47;99606.66;;;5.68;100.00
26719;BME280;14326;50.794;6.060;2022-12-07T13:51:19;99610.97;;;5.65;100.00
26719;BME280;14326;50.794;6.060;2022-12-07T13:53:47;99606.59;;;5.67;100.00
26719;BME280;14326;50.794;6.060;2022-12-07T13:56:14;99604.78;;;5.64;100.00